createdAt,value
2019-03-22T00:00:57.327Z,43.05
2019-03-22T00:03:27.939Z,46.55
2019-03-22T00:05:58.610Z,48.02
2019-03-22T00:08:29.285Z,49.80
2019-03-22T00:10:59.645Z,46.35
2019-03-22T00:13:30.230Z,45.73
2019-03-22T00:16:00.532Z,44.75
2019-03-22T00:18:32.141Z,44.58
2019-03-22T00:21:02.793Z,50.33
2019-03-22T00:23:33.466Z,45.20
2019-03-22T00:26:03.873Z,46.68
2019-03-22T00:28:35.667Z,45.67
2019-03-22T00:31:05.981Z,50.70
2019-03-22T00:33:36.673Z,49.90
2019-03-22T00:36:08.176Z,55.98
2019-03-22T00:38:38.451Z,51.88
2019-03-22T00:41:08.710Z,52.83
2019-03-22T00:43:39.034Z,51.08
2019-03-22T00:46:09.275Z,54.30
2019-03-22T00:48:39.496Z,47.98
2019-03-22T00:51:09.742Z,51.40
2019-03-22T00:53:39.948Z,48.28
2019-03-22T00:56:10.192Z,51.35
2019-03-22T00:58:40.867Z,51.30
2019-03-22T01:01:11.220Z,52.48
2019-03-22T01:03:41.471Z,50.63
2019-03-22T01:06:11.698Z,55.83
2019-03-22T01:08:41.955Z,53.50
2019-03-22T01:11:13.665Z,55.92
2019-03-22T01:13:45.517Z,55.78
2019-03-22T01:16:16.874Z,47.33
2019-03-22T01:18:47.108Z,51.75
2019-03-22T01:21:17.721Z,53.92
2019-03-22T01:23:47.926Z,53.00
2019-03-22T01:26:18.161Z,51.55
2019-03-22T01:28:48.371Z,51.90
2019-03-22T01:31:18.591Z,51.45
2019-03-22T01:33:49.183Z,52.88
2019-03-22T01:36:19.490Z,50.88
2019-03-22T01:38:49.747Z,53.08
2019-03-22T01:41:20.022Z,50.98
2019-03-22T01:43:50.730Z,49.10
2019-03-22T01:46:21.015Z,57.08
2019-03-22T01:48:51.252Z,50.90
2019-03-22T01:51:21.487Z,54.10
2019-03-22T01:53:52.101Z,49.70
2019-03-22T01:56:22.744Z,47.88
2019-03-22T01:58:53.402Z,51.00
2019-03-22T02:01:23.696Z,50.10
2019-03-22T02:03:53.936Z,63.48
2019-03-22T02:06:24.150Z,57.78
2019-03-22T02:08:55.097Z,56.53
2019-03-22T02:11:25.703Z,55.12
2019-03-22T02:13:56.023Z,49.42
2019-03-22T02:16:26.589Z,54.67
2019-03-22T02:18:56.911Z,55.05
2019-03-22T02:21:27.496Z,55.23
2019-03-22T02:23:57.772Z,61.15
2019-03-22T02:26:28.013Z,54.40
2019-03-22T02:28:58.251Z,55.20
2019-03-22T02:31:28.459Z,55.30
2019-03-22T02:33:58.688Z,48.85
2019-03-22T02:36:30.268Z,56.40
2019-03-22T02:39:00.880Z,57.88
2019-03-22T02:41:32.829Z,56.73
2019-03-22T02:44:03.380Z,53.38
2019-03-22T02:46:33.666Z,55.40
2019-03-22T02:49:04.379Z,54.90
2019-03-22T02:51:34.792Z,59.93
2019-03-22T02:54:05.396Z,52.25
2019-03-22T02:56:36.053Z,55.40
2019-03-22T02:59:06.355Z,49.15
2019-03-22T03:01:36.640Z,56.83
2019-03-22T03:04:07.020Z,55.15
2019-03-22T03:06:37.366Z,55.35
2019-03-22T03:09:07.638Z,61.20
2019-03-22T03:11:38.271Z,58.75
2019-03-22T03:14:08.589Z,58.45
2019-03-22T03:16:39.150Z,58.55
2019-03-22T03:19:09.452Z,59.35
2019-03-22T03:21:39.719Z,59.40
2019-03-22T03:24:11.473Z,56.68
2019-03-22T03:26:42.181Z,60.08
2019-03-22T03:29:12.885Z,63.15
2019-03-22T03:31:43.175Z,60.92
2019-03-22T03:34:13.409Z,59.10
2019-03-22T03:36:43.602Z,64.60
2019-03-22T03:39:13.836Z,64.17
2019-03-22T03:41:44.156Z,66.02
2019-03-22T03:44:14.401Z,61.53
2019-03-22T03:46:44.904Z,60.12
2019-03-22T03:49:15.116Z,67.87
2019-03-22T03:51:45.795Z,63.50
2019-03-22T03:54:16.497Z,71.47
2019-03-22T03:56:46.807Z,72.58
2019-03-22T03:59:17.005Z,71.95
2019-03-22T04:01:47.251Z,72.37
2019-03-22T04:04:17.466Z,84.77
2019-03-22T04:06:47.698Z,80.17
2019-03-22T04:09:17.961Z,84.25
2019-03-22T04:11:48.520Z,75.00
2019-03-22T04:14:19.188Z,77.95
2019-03-22T04:16:49.821Z,82.62
2019-03-22T04:19:20.480Z,76.40
2019-03-22T04:21:50.768Z,71.50
2019-03-22T04:24:21.485Z,76.55
2019-03-22T04:26:52.149Z,77.62
2019-03-22T04:29:22.816Z,78.80
2019-03-22T04:31:53.116Z,86.30
2019-03-22T04:34:23.679Z,73.42
2019-03-22T04:36:54.175Z,79.82
2019-03-22T04:39:25.444Z,80.45
2019-03-22T04:41:56.035Z,82.78
2019-03-22T04:44:26.667Z,78.97
2019-03-22T04:46:58.151Z,78.30
2019-03-22T04:49:31.318Z,80.55
2019-03-22T04:52:02.220Z,80.38
2019-03-22T04:54:37.251Z,74.55
2019-03-22T04:57:13.071Z,82.47
2019-03-22T04:59:47.352Z,92.80
2019-03-22T05:02:19.308Z,89.13
2019-03-22T05:04:50.238Z,89.83
2019-03-22T05:07:20.931Z,89.95
2019-03-22T05:09:52.604Z,95.40
2019-03-22T05:12:24.929Z,99.15
2019-03-22T05:14:58.408Z,106.20
2019-03-22T05:17:30.326Z,104.07
2019-03-22T05:20:01.519Z,113.72
2019-03-22T05:22:34.443Z,113.50
2019-03-22T05:25:05.531Z,104.47
2019-03-22T05:27:40.720Z,118.40
2019-03-22T05:30:33.874Z,112.00
2019-03-22T05:33:04.562Z,106.85
2019-03-22T05:35:34.853Z,109.97
2019-03-22T05:38:05.433Z,104.07
2019-03-22T05:40:37.563Z,101.53
2019-03-22T05:43:07.789Z,105.25
2019-03-22T05:45:38.429Z,105.05
2019-03-22T05:48:08.703Z,99.58
2019-03-22T05:50:39.271Z,101.30
2019-03-22T05:53:10.829Z,97.92
2019-03-22T05:55:41.462Z,105.52
2019-03-22T05:58:11.785Z,108.97
2019-03-22T06:00:42.389Z,111.12
2019-03-22T06:03:13.021Z,102.70
2019-03-22T06:05:43.335Z,108.65
2019-03-22T06:08:14.008Z,114.67
2019-03-22T06:10:44.335Z,110.00
2019-03-22T06:13:14.564Z,106.63
2019-03-22T06:15:44.809Z,105.37
2019-03-22T06:18:16.081Z,100.18
2019-03-22T06:20:47.559Z,98.82
2019-03-22T06:23:18.218Z,90.22
2019-03-22T06:25:48.521Z,98.78
2019-03-22T06:28:18.766Z,85.22
2019-03-22T06:30:49.084Z,80.77
2019-03-22T06:33:19.297Z,85.32
2019-03-22T06:35:49.519Z,79.12
2019-03-22T06:38:20.102Z,83.95
2019-03-22T06:40:50.801Z,76.12
2019-03-22T06:43:21.437Z,76.70
2019-03-22T06:45:51.774Z,75.62
2019-03-22T06:48:22.040Z,78.35
2019-03-22T06:50:52.755Z,80.87
2019-03-22T06:53:23.041Z,79.95
2019-03-22T06:55:53.263Z,80.75
2019-03-22T06:58:24.288Z,71.45
2019-03-22T07:00:54.942Z,71.22
2019-03-22T07:03:25.520Z,67.35
2019-03-22T07:05:56.201Z,71.47
2019-03-22T07:08:26.882Z,63.60
2019-03-22T07:10:57.300Z,62.20
2019-03-22T07:13:28.645Z,60.60
2019-03-22T07:15:59.321Z,58.87
2019-03-22T07:18:29.612Z,56.45
2019-03-22T07:21:00.204Z,55.88
2019-03-22T07:23:31.460Z,65.47
2019-03-22T07:26:02.145Z,56.10
2019-03-22T07:28:32.499Z,59.23
2019-03-22T07:31:02.832Z,51.18
2019-03-22T07:33:33.074Z,59.48
2019-03-22T07:36:03.332Z,55.45
2019-03-22T07:38:33.573Z,52.73
2019-03-22T07:41:03.810Z,53.40
2019-03-22T07:43:35.215Z,59.53
2019-03-22T07:46:06.214Z,53.55
2019-03-22T07:48:36.902Z,51.45
2019-03-22T07:51:07.612Z,58.95
2019-03-22T07:53:37.924Z,55.50
2019-03-22T07:56:09.807Z,47.00
2019-03-22T07:58:41.142Z,48.13
2019-03-22T08:01:11.748Z,47.93
2019-03-22T08:03:42.438Z,50.23
2019-03-22T08:06:12.775Z,48.73
2019-03-22T08:08:43.358Z,47.20
2019-03-22T08:11:14.751Z,46.95
2019-03-22T08:13:45.374Z,50.35
2019-03-22T08:16:15.730Z,45.73
2019-03-22T08:18:46.303Z,45.73
2019-03-22T08:21:17.684Z,42.05
2019-03-22T08:23:54.378Z,42.80
2019-03-22T08:26:25.018Z,38.98
2019-03-22T08:28:55.670Z,49.33
2019-03-22T08:31:26.000Z,39.42
2019-03-22T08:33:56.201Z,35.75
2019-03-22T08:36:26.430Z,42.45
2019-03-22T08:38:57.045Z,36.53
2019-03-22T08:41:27.352Z,34.35
2019-03-22T08:44:02.598Z,34.43
2019-03-22T08:46:32.139Z,30.12
2019-03-22T08:49:02.875Z,29.72
2019-03-22T08:51:34.771Z,28.05
2019-03-22T08:54:07.780Z,34.00
2019-03-22T08:56:39.425Z,28.23
2019-03-22T08:59:13.393Z,23.67
2019-03-22T09:01:44.665Z,23.87
2019-03-22T09:04:15.412Z,27.65
2019-03-22T09:06:45.697Z,28.60
2019-03-22T09:09:16.089Z,22.77
2019-03-22T09:11:47.896Z,19.40
2019-03-22T09:14:18.371Z,18.95
2019-03-22T09:16:48.686Z,18.48
2019-03-22T09:19:19.410Z,18.17
2019-03-22T09:21:50.259Z,18.62
2019-03-22T09:24:20.725Z,20.48
2019-03-22T09:26:52.604Z,15.10
2019-03-22T09:29:23.392Z,19.98
2019-03-22T09:31:55.138Z,17.10
2019-03-22T09:34:33.534Z,20.20
2019-03-22T09:36:58.304Z,18.12
2019-03-22T09:39:29.005Z,15.25
2019-03-22T09:42:00.946Z,13.80
2019-03-22T09:44:42.877Z,15.58
2019-03-22T09:47:03.528Z,11.95
2019-03-22T09:49:33.771Z,13.50
2019-03-22T09:52:04.869Z,12.65
2019-03-22T09:54:38.771Z,13.95
2019-03-22T09:57:11.085Z,13.58
2019-03-22T09:59:41.383Z,12.93
2019-03-22T10:02:13.113Z,10.43
2019-03-22T10:04:43.539Z,9.95
2019-03-22T10:07:13.759Z,11.50
2019-03-22T10:09:44.450Z,12.18
2019-03-22T10:12:16.741Z,13.38
2019-03-22T10:14:47.562Z,11.25
2019-03-22T10:17:18.624Z,9.45
2019-03-22T10:19:50.344Z,9.88
2019-03-22T10:22:20.983Z,10.82
2019-03-22T10:24:51.337Z,7.25
2019-03-22T10:27:22.115Z,7.22
2019-03-22T10:29:52.404Z,6.20
2019-03-22T10:32:23.937Z,4.55
2019-03-22T10:34:54.939Z,6.10
2019-03-22T10:37:25.742Z,10.40
2019-03-22T10:39:58.217Z,8.45
2019-03-22T10:42:28.915Z,8.08
2019-03-22T10:44:59.649Z,10.50
2019-03-22T10:47:32.043Z,7.42
2019-03-22T10:50:02.370Z,5.95
2019-03-22T10:52:32.653Z,6.37
2019-03-22T10:55:23.488Z,6.15
2019-03-22T10:57:35.169Z,8.90
2019-03-22T11:00:08.780Z,12.35
2019-03-22T11:02:39.661Z,9.65
2019-03-22T11:05:10.240Z,5.10
2019-03-22T11:07:40.836Z,7.22
2019-03-22T11:10:14.966Z,10.25
2019-03-22T11:12:45.808Z,8.40
2019-03-22T11:15:18.311Z,6.00
2019-03-22T11:17:49.125Z,6.90
2019-03-22T11:20:21.043Z,11.15
2019-03-22T11:22:51.390Z,4.22
2019-03-22T11:25:22.047Z,5.00
2019-03-22T11:27:52.952Z,6.03
2019-03-22T11:30:24.481Z,5.70
2019-03-22T11:32:54.840Z,9.38
2019-03-22T11:35:25.355Z,5.45
2019-03-22T11:37:56.148Z,19.00
2019-03-22T11:40:29.325Z,5.08
2019-03-22T11:43:08.226Z,9.50
2019-03-22T11:45:32.401Z,8.78
2019-03-22T11:48:03.246Z,6.85
2019-03-22T11:50:34.089Z,6.20
2019-03-22T11:53:06.378Z,7.17
2019-03-22T11:55:36.588Z,5.80
2019-03-22T11:58:06.825Z,8.33
2019-03-22T12:00:37.571Z,5.60
2019-03-22T12:03:07.925Z,7.15
2019-03-22T12:05:40.548Z,5.90
2019-03-22T12:08:11.403Z,3.90
2019-03-22T12:10:43.675Z,5.87
2019-03-22T12:13:14.400Z,8.30
2019-03-22T12:15:46.673Z,4.87
2019-03-22T12:18:20.457Z,8.35
2019-03-22T12:20:50.831Z,4.28
2019-03-22T12:23:21.489Z,10.30
2019-03-22T12:25:52.125Z,6.08
2019-03-22T12:28:24.287Z,8.28
2019-03-22T12:30:54.944Z,7.95
2019-03-22T12:33:25.229Z,6.90
2019-03-22T12:35:55.995Z,6.37
2019-03-22T12:38:26.632Z,7.85
2019-03-22T12:40:58.233Z,5.85
2019-03-22T12:43:31.457Z,8.50
2019-03-22T12:46:03.475Z,5.75
2019-03-22T12:48:35.799Z,5.08
2019-03-22T12:51:06.190Z,7.33
2019-03-22T12:53:36.462Z,9.43
2019-03-22T12:56:06.654Z,5.95
2019-03-22T12:58:39.977Z,6.85
2019-03-22T13:01:10.744Z,7.30
2019-03-22T13:03:41.432Z,4.75
2019-03-22T13:06:11.716Z,6.20
2019-03-22T13:08:41.926Z,5.92
2019-03-22T13:11:12.288Z,9.10
2019-03-22T13:13:42.510Z,8.70
2019-03-22T13:16:12.749Z,10.98
2019-03-22T13:18:50.022Z,9.95
2019-03-22T13:21:16.785Z,7.55
2019-03-22T13:23:47.178Z,10.82
2019-03-22T13:26:17.910Z,8.55
2019-03-22T13:28:48.267Z,8.58
2019-03-22T13:31:18.504Z,6.97
2019-03-22T13:33:48.714Z,7.95
2019-03-22T13:36:18.962Z,10.35
2019-03-22T13:38:50.346Z,7.22
2019-03-22T13:41:20.940Z,11.63
2019-03-22T13:43:52.497Z,10.53
2019-03-22T13:46:22.790Z,9.33
2019-03-22T13:48:53.112Z,8.80
2019-03-22T13:51:23.753Z,6.62
2019-03-22T13:53:54.498Z,10.30
2019-03-22T13:56:26.381Z,6.20
2019-03-22T13:58:56.766Z,7.92
2019-03-22T14:01:27.456Z,7.45
2019-03-22T14:03:58.251Z,5.33
2019-03-22T14:06:28.543Z,6.95
2019-03-22T14:08:59.200Z,11.10
2019-03-22T14:11:29.576Z,5.33
2019-03-22T14:14:01.919Z,9.95
2019-03-22T14:16:32.565Z,5.97
2019-03-22T14:19:04.089Z,12.98
2019-03-22T14:21:34.780Z,8.40
2019-03-22T14:24:05.626Z,12.95
2019-03-22T14:26:36.356Z,8.13
2019-03-22T14:29:06.652Z,6.62
2019-03-22T14:31:36.861Z,7.50
2019-03-22T14:34:07.182Z,8.23
2019-03-22T14:36:37.411Z,9.30
2019-03-22T14:39:08.962Z,11.18
2019-03-22T14:41:39.195Z,9.30
2019-03-22T14:44:09.404Z,8.15
2019-03-22T14:46:40.007Z,5.85
2019-03-22T14:49:10.710Z,7.33
2019-03-22T14:51:41.023Z,5.72
2019-03-22T14:54:11.235Z,4.53
2019-03-22T14:56:41.459Z,7.58
2019-03-22T14:59:12.046Z,11.48
2019-03-22T15:01:42.354Z,12.05
2019-03-22T15:04:12.681Z,9.88
2019-03-22T15:06:42.902Z,7.90
2019-03-22T15:09:13.290Z,8.48
2019-03-22T15:11:45.443Z,10.08
2019-03-22T15:14:33.626Z,11.78
2019-03-22T15:17:14.557Z,6.65
2019-03-22T15:19:49.769Z,10.00
2019-03-22T15:22:37.624Z,5.20
2019-03-22T15:25:17.607Z,10.18
2019-03-22T15:28:06.096Z,12.05
2019-03-22T15:30:54.901Z,6.58
2019-03-22T15:33:34.223Z,7.90
2019-03-22T15:36:19.193Z,8.50
2019-03-22T15:39:08.102Z,7.87
2019-03-22T15:41:39.310Z,9.38
2019-03-22T15:44:09.674Z,9.73
2019-03-22T15:46:39.977Z,10.10
2019-03-22T15:49:20.755Z,5.83
2019-03-22T15:51:56.122Z,7.08
2019-03-22T15:54:29.532Z,5.40
2019-03-22T15:57:10.167Z,4.25
2019-03-22T15:59:40.546Z,7.20
2019-03-22T16:02:10.850Z,7.87
2019-03-22T16:04:41.057Z,5.67
2019-03-22T16:07:11.292Z,14.23
2019-03-22T16:09:41.610Z,11.57
2019-03-22T16:12:11.965Z,13.10
2019-03-22T16:14:42.541Z,9.35
2019-03-22T16:17:13.201Z,8.68
2019-03-22T16:19:43.489Z,5.33
2019-03-22T16:22:15.289Z,8.05
2019-03-22T16:24:45.580Z,9.30
2019-03-22T16:27:16.239Z,12.90
2019-03-22T16:29:46.945Z,10.55
2019-03-22T16:32:17.228Z,7.65
2019-03-22T16:34:47.850Z,11.75
2019-03-22T16:37:18.199Z,13.98
2019-03-22T16:39:48.852Z,12.07
2019-03-22T16:42:19.198Z,9.80
2019-03-22T16:44:49.812Z,9.53
2019-03-22T16:47:21.394Z,12.58
2019-03-22T16:49:51.604Z,21.62
2019-03-22T16:52:22.284Z,38.02
2019-03-22T16:54:52.588Z,45.00
2019-03-22T16:57:23.186Z,41.18
2019-03-22T16:59:53.473Z,83.78
2019-03-22T17:02:24.079Z,94.47
2019-03-22T17:04:54.709Z,168.52
2019-03-22T17:07:25.674Z,198.50
2019-03-22T17:09:56.324Z,130.18
2019-03-22T17:12:26.637Z,81.25
2019-03-22T17:14:59.572Z,58.40
2019-03-22T17:17:31.539Z,60.63
2019-03-22T17:20:01.934Z,75.62
2019-03-22T17:22:32.229Z,84.32
2019-03-22T17:25:02.585Z,97.67
2019-03-22T17:27:32.901Z,119.20
2019-03-22T17:30:04.475Z,87.65
2019-03-22T17:32:34.702Z,98.20
2019-03-22T17:35:09.354Z,92.88
2019-03-22T17:37:39.995Z,79.47
2019-03-22T17:40:10.867Z,86.37
2019-03-22T17:42:41.430Z,107.52
2019-03-22T17:45:15.625Z,108.95
2019-03-22T17:47:46.368Z,60.40
2019-03-22T17:50:16.925Z,62.75
2019-03-22T17:52:47.308Z,82.05
2019-03-22T17:55:17.544Z,84.62
2019-03-22T17:57:47.882Z,70.05
2019-03-22T18:00:27.739Z,78.22
2019-03-22T18:02:58.018Z,74.53
2019-03-22T18:05:28.307Z,66.70
2019-03-22T18:08:00.168Z,79.20
2019-03-22T18:10:30.417Z,67.10
2019-03-22T18:13:01.062Z,49.90
2019-03-22T18:15:31.412Z,53.38
2019-03-22T18:18:03.527Z,58.30
2019-03-22T18:20:33.863Z,38.75
2019-03-22T18:23:04.102Z,42.98
2019-03-22T18:25:34.691Z,37.25
2019-03-22T18:28:05.339Z,55.38
2019-03-22T18:30:35.660Z,41.37
2019-03-22T18:33:06.254Z,40.75
2019-03-22T18:35:36.587Z,46.80
2019-03-22T18:38:06.862Z,41.23
2019-03-22T18:40:37.196Z,46.08
2019-03-22T18:43:07.416Z,45.38
2019-03-22T18:45:37.628Z,53.68
2019-03-22T18:48:09.379Z,42.03
2019-03-22T18:50:39.958Z,55.73
2019-03-22T18:53:10.245Z,45.40
2019-03-22T18:55:40.822Z,43.05
2019-03-22T18:58:11.133Z,42.80
2019-03-22T19:00:41.763Z,37.93
2019-03-22T19:03:12.057Z,46.68
2019-03-22T19:05:43.965Z,49.60
2019-03-22T19:08:14.521Z,41.77
2019-03-22T19:10:45.079Z,38.58
2019-03-22T19:13:15.366Z,36.70
2019-03-22T19:15:45.931Z,47.75
2019-03-22T19:18:16.660Z,44.30
2019-03-22T19:20:46.994Z,42.20
2019-03-22T19:23:18.203Z,42.70
2019-03-22T19:25:48.798Z,49.00
2019-03-22T19:28:19.115Z,47.30
2019-03-22T19:30:49.322Z,42.83
2019-03-22T19:33:19.592Z,41.75
2019-03-22T19:35:49.812Z,44.58
2019-03-22T19:38:20.079Z,50.20
2019-03-22T19:40:50.286Z,57.95
2019-03-22T19:43:20.554Z,51.37
2019-03-22T19:45:51.602Z,60.12
2019-03-22T19:48:21.839Z,49.93
2019-03-22T19:50:52.086Z,41.83
2019-03-22T19:53:23.876Z,54.88
2019-03-22T19:55:54.150Z,64.77
2019-03-22T19:58:24.708Z,45.83
2019-03-22T20:00:55.015Z,52.40
2019-03-22T20:03:25.254Z,54.38
2019-03-22T20:05:55.561Z,59.18
2019-03-22T20:08:25.775Z,60.67
2019-03-22T20:10:55.994Z,55.92
2019-03-22T20:13:26.239Z,75.08
2019-03-22T20:15:56.516Z,65.47
2019-03-22T20:18:26.714Z,74.72
2019-03-22T20:20:57.277Z,69.82
2019-03-22T20:23:27.912Z,75.20
2019-03-22T20:25:58.569Z,67.97
2019-03-22T20:28:28.872Z,61.30
2019-03-22T20:30:59.114Z,77.55
2019-03-22T20:33:29.432Z,84.03
2019-03-22T20:35:59.710Z,85.32
2019-03-22T20:38:30.417Z,144.02
2019-03-22T20:41:01.039Z,115.92
2019-03-22T20:43:31.703Z,97.50
2019-03-22T20:46:03.108Z,82.75
2019-03-22T20:48:33.693Z,70.00
2019-03-22T20:51:04.408Z,81.78
2019-03-22T20:53:34.701Z,83.12
2019-03-22T20:56:04.927Z,89.13
2019-03-22T20:58:35.182Z,95.83
2019-03-22T21:01:05.816Z,119.67
2019-03-22T21:03:36.187Z,115.32
2019-03-22T21:06:06.771Z,143.85
2019-03-22T21:08:37.300Z,111.03
2019-03-22T21:11:07.491Z,143.60
2019-03-22T21:13:37.718Z,135.07
2019-03-22T21:16:07.971Z,159.45
2019-03-22T21:18:38.217Z,188.87
2019-03-22T21:21:08.473Z,197.85
2019-03-22T21:23:38.697Z,171.98
2019-03-22T21:26:09.009Z,185.70
2019-03-22T21:28:39.584Z,195.00
2019-03-22T21:31:09.913Z,185.88
2019-03-22T21:33:40.212Z,176.72
2019-03-22T21:36:10.414Z,188.10
2019-03-22T21:38:40.740Z,169.05
2019-03-22T21:41:11.313Z,161.18
2019-03-22T21:43:41.618Z,159.85
2019-03-22T21:46:11.841Z,169.37
2019-03-22T21:48:42.102Z,171.77
2019-03-22T21:51:12.385Z,168.62
2019-03-22T21:53:42.824Z,165.32
2019-03-22T21:56:13.430Z,166.07
2019-03-22T21:58:44.192Z,171.18
2019-03-22T22:01:14.489Z,167.93
2019-03-22T22:03:44.761Z,168.78
2019-03-22T22:06:14.973Z,172.78
2019-03-22T22:08:45.196Z,174.35
2019-03-22T22:11:15.807Z,191.80
2019-03-22T22:13:46.459Z,180.60
2019-03-22T22:16:17.126Z,181.65
2019-03-22T22:18:49.946Z,178.18
2019-03-22T22:21:21.331Z,167.30
2019-03-22T22:23:53.088Z,163.28
2019-03-22T22:26:23.768Z,154.63
2019-03-22T22:28:54.084Z,157.25
2019-03-22T22:31:24.299Z,171.30
2019-03-22T22:33:54.593Z,154.90
2019-03-22T22:36:24.928Z,146.60
2019-03-22T22:38:55.211Z,146.70
2019-03-22T22:41:25.786Z,155.45
2019-03-22T22:43:56.089Z,147.45
2019-03-22T22:46:26.696Z,161.50
2019-03-22T22:48:57.396Z,148.17
2019-03-22T22:51:29.023Z,169.17
2019-03-22T22:53:59.405Z,164.47
2019-03-22T22:56:29.660Z,180.95
2019-03-22T22:58:59.884Z,150.72
2019-03-22T23:01:30.129Z,121.97
2019-03-22T23:04:00.742Z,154.12
2019-03-22T23:06:31.393Z,174.30
2019-03-22T23:09:01.681Z,140.52
2019-03-22T23:11:33.896Z,126.27
2019-03-22T23:14:04.601Z,165.77
2019-03-22T23:16:34.903Z,171.05
2019-03-22T23:19:05.167Z,168.20
2019-03-22T23:21:35.446Z,170.75
2019-03-22T23:24:06.022Z,191.43
2019-03-22T23:26:36.685Z,191.07
2019-03-22T23:29:08.415Z,185.37
2019-03-22T23:31:39.134Z,196.37
2019-03-22T23:34:09.856Z,258.02
2019-03-22T23:36:40.142Z,288.95
2019-03-22T23:39:10.393Z,281.17
2019-03-22T23:41:40.617Z,258.45
2019-03-22T23:44:10.867Z,247.93
2019-03-22T23:46:41.446Z,288.42
2019-03-22T23:49:11.767Z,323.65
2019-03-22T23:51:42.001Z,345.27
2019-03-22T23:54:12.609Z,349.80
2019-03-22T23:56:43.283Z,304.93
2019-03-22T23:59:14.161Z,289.50
